sensor_id;sensor_type;location;lat;lon;timestamp;temperature;humidity
7046;DHT22;3564;53.326;10.356;2024-03-08T00:01:35;7.30;99.90
7046;DHT22;3564;53.326;10.356;2024-03-08T00:04:01;7.30;99.90
7046;DHT22;3564;53.326;10.356;2024-03-08T00:06:27;7.30;99.90
7046;DHT22;3564;53.326;10.356;2024-03-08T00:08:52;7.30;99.90
7046;DHT22;3564;53.326;10.356;2024-03-08T00:11:18;7.20;99.90
7046;DHT22;3564;53.326;10.356;2024-03-08T00:13:43;7.20;99.90
7046;DHT22;3564;53.326;10.356;2024-03-08T00:16:10;7.10;99.90
7046;DHT22;3564;53.326;10.356;2024-03-08T00:18:36;7.10;99.90
7046;DHT22;3564;53.326;10.356;2024-03-08T00:21:02;7.10;99.90
7046;DHT22;3564;53.326;10.356;2024-03-08T00:23:27;7.10;99.90
7046;DHT22;3564;53.326;10.356;2024-03-08T00:25:53;7.10;99.90
7046;DHT22;3564;53.326;10.356;2024-03-08T00:28:20;7.00;99.90
7046;DHT22;3564;53.326;10.356;2024-03-08T00:30:45;7.10;99.90
7046;DHT22;3564;53.326;10.356;2024-03-08T00:33:12;7.10;99.90
7046;DHT22;3564;53.326;10.356;2024-03-08T00:35:37;7.10;99.90
7046;DHT22;3564;53.326;10.356;2024-03-08T00:38:03;7.10;99.90
7046;DHT22;3564;53.326;10.356;2024-03-08T00:40:29;7.00;99.90
7046;DHT22;3564;53.326;10.356;2024-03-08T00:42:54;7.00;99.90
7046;DHT22;3564;53.326;10.356;2024-03-08T00:45:20;7.00;99.90
7046;DHT22;3564;53.326;10.356;2024-03-08T00:47:45;7.00;99.90
7046;DHT22;3564;53.326;10.356;2024-03-08T00:50:11;7.00;99.90
7046;DHT22;3564;53.326;10.356;2024-03-08T00:52:38;7.00;99.90
7046;DHT22;3564;53.326;10.356;2024-03-08T00:55:04;7.00;99.90
7046;DHT22;3564;53.326;10.356;2024-03-08T00:57:29;7.00;99.90
7046;DHT22;3564;53.326;10.356;2024-03-08T00:59:55;7.00;99.90
7046;DHT22;3564;53.326;10.356;2024-03-08T01:02:22;7.00;99.90
7046;DHT22;3564;53.326;10.356;2024-03-08T01:04:48;7.00;99.90
7046;DHT22;3564;53.326;10.356;2024-03-08T01:07:14;7.00;99.90
7046;DHT22;3564;53.326;10.356;2024-03-08T01:09:40;7.00;99.90
7046;DHT22;3564;53.326;10.356;2024-03-08T01:12:05;7.00;99.90
7046;DHT22;3564;53.326;10.356;2024-03-08T01:14:33;7.00;99.90
7046;DHT22;3564;53.326;10.356;2024-03-08T01:16:59;6.90;99.90
7046;DHT22;3564;53.326;10.356;2024-03-08T01:19:24;6.90;99.90
7046;DHT22;3564;53.326;10.356;2024-03-08T01:21:50;6.90;99.90
7046;DHT22;3564;53.326;10.356;2024-03-08T01:24:16;6.80;99.90
7046;DHT22;3564;53.326;10.356;2024-03-08T01:26:42;6.80;99.90
7046;DHT22;3564;53.326;10.356;2024-03-08T01:29:07;6.80;99.90
7046;DHT22;3564;53.326;10.356;2024-03-08T01:31:33;6.80;99.90
7046;DHT22;3564;53.326;10.356;2024-03-08T01:33:59;6.80;99.90
7046;DHT22;3564;53.326;10.356;2024-03-08T01:36:25;6.80;99.90
7046;DHT22;3564;53.326;10.356;2024-03-08T01:38:51;6.80;99.90
7046;DHT22;3564;53.326;10.356;2024-03-08T01:41:17;6.80;99.90
7046;DHT22;3564;53.326;10.356;2024-03-08T01:43:44;6.70;99.90
7046;DHT22;3564;53.326;10.356;2024-03-08T01:46:12;6.80;99.90
7046;DHT22;3564;53.326;10.356;2024-03-08T01:48:40;6.80;99.90
7046;DHT22;3564;53.326;10.356;2024-03-08T01:51:07;6.70;99.90
7046;DHT22;3564;53.326;10.356;2024-03-08T01:53:33;6.70;99.90
7046;DHT22;3564;53.326;10.356;2024-03-08T01:56:00;6.70;99.90
7046;DHT22;3564;53.326;10.356;2024-03-08T01:58:27;6.70;99.90
7046;DHT22;3564;53.326;10.356;2024-03-08T02:00:57;6.60;99.90
7046;DHT22;3564;53.326;10.356;2024-03-08T02:03:26;6.70;99.90
7046;DHT22;3564;53.326;10.356;2024-03-08T02:05:51;6.60;99.90
7046;DHT22;3564;53.326;10.356;2024-03-08T02:08:18;6.60;99.90
7046;DHT22;3564;53.326;10.356;2024-03-08T02:10:44;6.60;99.90
7046;DHT22;3564;53.326;10.356;2024-03-08T02:13:11;6.60;99.90
7046;DHT22;3564;53.326;10.356;2024-03-08T02:18:19;6.60;99.90
7046;DHT22;3564;53.326;10.356;2024-03-08T02:20:50;6.60;99.90
7046;DHT22;3564;53.326;10.356;2024-03-08T02:23:16;6.60;99.90
7046;DHT22;3564;53.326;10.356;2024-03-08T02:25:42;6.60;99.90
7046;DHT22;3564;53.326;10.356;2024-03-08T02:28:12;6.50;99.90
7046;DHT22;3564;53.326;10.356;2024-03-08T02:30:38;6.50;99.90
7046;DHT22;3564;53.326;10.356;2024-03-08T02:33:04;6.50;99.90
7046;DHT22;3564;53.326;10.356;2024-03-08T02:35:31;6.50;99.90
7046;DHT22;3564;53.326;10.356;2024-03-08T02:37:57;6.50;99.90
7046;DHT22;3564;53.326;10.356;2024-03-08T02:40:23;6.50;99.90
7046;DHT22;3564;53.326;10.356;2024-03-08T02:42:52;6.50;99.90
7046;DHT22;3564;53.326;10.356;2024-03-08T02:45:18;6.50;99.90
7046;DHT22;3564;53.326;10.356;2024-03-08T02:47:43;6.50;99.90
7046;DHT22;3564;53.326;10.356;2024-03-08T02:50:09;6.50;99.90
7046;DHT22;3564;53.326;10.356;2024-03-08T02:52:35;6.50;99.90
7046;DHT22;3564;53.326;10.356;2024-03-08T02:55:04;6.40;99.90
7046;DHT22;3564;53.326;10.356;2024-03-08T02:57:33;6.40;99.90
7046;DHT22;3564;53.326;10.356;2024-03-08T02:59:59;6.30;99.90
7046;DHT22;3564;53.326;10.356;2024-03-08T03:02:27;6.30;99.90
7046;DHT22;3564;53.326;10.356;2024-03-08T03:04:52;6.30;99.90
7046;DHT22;3564;53.326;10.356;2024-03-08T03:07:19;6.30;99.90
7046;DHT22;3564;53.326;10.356;2024-03-08T03:09:44;6.30;99.90
7046;DHT22;3564;53.326;10.356;2024-03-08T03:12:11;6.20;99.90
7046;DHT22;3564;53.326;10.356;2024-03-08T03:14:37;6.20;99.90
7046;DHT22;3564;53.326;10.356;2024-03-08T03:17:05;6.20;99.90
7046;DHT22;3564;53.326;10.356;2024-03-08T03:19:31;6.20;99.90
7046;DHT22;3564;53.326;10.356;2024-03-08T03:21:56;6.10;99.90
7046;DHT22;3564;53.326;10.356;2024-03-08T03:24:22;6.10;99.90
7046;DHT22;3564;53.326;10.356;2024-03-08T03:26:48;6.10;99.90
7046;DHT22;3564;53.326;10.356;2024-03-08T03:29:15;6.10;99.90
7046;DHT22;3564;53.326;10.356;2024-03-08T03:31:42;6.10;99.90
7046;DHT22;3564;53.326;10.356;2024-03-08T03:34:12;6.10;99.90
7046;DHT22;3564;53.326;10.356;2024-03-08T03:36:38;6.10;99.90
7046;DHT22;3564;53.326;10.356;2024-03-08T03:39:08;6.10;99.90
7046;DHT22;3564;53.326;10.356;2024-03-08T03:41:45;6.10;99.90
7046;DHT22;3564;53.326;10.356;2024-03-08T03:44:11;6.10;99.90
7046;DHT22;3564;53.326;10.356;2024-03-08T03:46:37;6.10;99.90
7046;DHT22;3564;53.326;10.356;2024-03-08T03:49:02;6.10;99.90
7046;DHT22;3564;53.326;10.356;2024-03-08T03:51:29;6.10;99.90
7046;DHT22;3564;53.326;10.356;2024-03-08T03:53:55;6.10;99.90
7046;DHT22;3564;53.326;10.356;2024-03-08T03:56:25;6.00;99.90
7046;DHT22;3564;53.326;10.356;2024-03-08T03:58:52;6.00;99.90
7046;DHT22;3564;53.326;10.356;2024-03-08T04:01:17;6.00;99.90
7046;DHT22;3564;53.326;10.356;2024-03-08T04:03:44;6.00;99.90
7046;DHT22;3564;53.326;10.356;2024-03-08T04:06:09;6.00;99.90
7046;DHT22;3564;53.326;10.356;2024-03-08T04:08:35;6.00;99.90
7046;DHT22;3564;53.326;10.356;2024-03-08T04:11:01;5.90;99.90
7046;DHT22;3564;53.326;10.356;2024-03-08T04:13:26;5.90;99.90
7046;DHT22;3564;53.326;10.356;2024-03-08T04:15:52;6.00;99.90
7046;DHT22;3564;53.326;10.356;2024-03-08T04:18:18;5.90;99.90
7046;DHT22;3564;53.326;10.356;2024-03-08T04:20:44;5.90;99.90
7046;DHT22;3564;53.326;10.356;2024-03-08T04:23:10;5.90;99.90
7046;DHT22;3564;53.326;10.356;2024-03-08T04:25:36;5.90;99.90
7046;DHT22;3564;53.326;10.356;2024-03-08T04:28:01;5.90;99.90
7046;DHT22;3564;53.326;10.356;2024-03-08T04:30:27;5.80;99.90
7046;DHT22;3564;53.326;10.356;2024-03-08T04:32:54;5.80;99.90
7046;DHT22;3564;53.326;10.356;2024-03-08T04:35:19;5.80;99.90
7046;DHT22;3564;53.326;10.356;2024-03-08T04:37:45;5.80;99.90
7046;DHT22;3564;53.326;10.356;2024-03-08T04:40:11;5.70;99.90
7046;DHT22;3564;53.326;10.356;2024-03-08T04:42:39;5.70;99.90
7046;DHT22;3564;53.326;10.356;2024-03-08T04:45:05;5.70;99.90
7046;DHT22;3564;53.326;10.356;2024-03-08T04:47:33;5.70;99.90
7046;DHT22;3564;53.326;10.356;2024-03-08T04:49:58;5.70;99.90
7046;DHT22;3564;53.326;10.356;2024-03-08T04:52:26;5.70;99.90
7046;DHT22;3564;53.326;10.356;2024-03-08T04:54:53;5.70;99.90
7046;DHT22;3564;53.326;10.356;2024-03-08T04:57:19;5.70;99.90
7046;DHT22;3564;53.326;10.356;2024-03-08T04:59:44;5.70;99.90
7046;DHT22;3564;53.326;10.356;2024-03-08T05:02:10;5.70;99.90
7046;DHT22;3564;53.326;10.356;2024-03-08T05:04:37;5.70;99.90
7046;DHT22;3564;53.326;10.356;2024-03-08T05:07:02;5.70;99.90
7046;DHT22;3564;53.326;10.356;2024-03-08T05:09:29;5.70;99.90
7046;DHT22;3564;53.326;10.356;2024-03-08T05:11:57;5.60;99.90
7046;DHT22;3564;53.326;10.356;2024-03-08T05:14:25;5.60;99.90
7046;DHT22;3564;53.326;10.356;2024-03-08T05:16:50;5.60;99.90
7046;DHT22;3564;53.326;10.356;2024-03-08T05:19:20;5.60;99.90
7046;DHT22;3564;53.326;10.356;2024-03-08T05:21:46;5.60;99.90
7046;DHT22;3564;53.326;10.356;2024-03-08T05:24:13;5.50;99.90
7046;DHT22;3564;53.326;10.356;2024-03-08T05:26:40;5.50;99.90
7046;DHT22;3564;53.326;10.356;2024-03-08T05:29:06;5.50;99.90
7046;DHT22;3564;53.326;10.356;2024-03-08T05:31:45;5.50;99.90
7046;DHT22;3564;53.326;10.356;2024-03-08T05:34:15;5.50;99.90
7046;DHT22;3564;53.326;10.356;2024-03-08T05:36:41;5.50;99.90
7046;DHT22;3564;53.326;10.356;2024-03-08T05:39:12;5.50;99.90
7046;DHT22;3564;53.326;10.356;2024-03-08T05:41:41;5.50;99.90
7046;DHT22;3564;53.326;10.356;2024-03-08T05:44:07;5.50;99.90
7046;DHT22;3564;53.326;10.356;2024-03-08T05:46:34;5.50;99.90
7046;DHT22;3564;53.326;10.356;2024-03-08T05:49:01;5.50;99.90
7046;DHT22;3564;53.326;10.356;2024-03-08T05:51:34;5.50;99.90
7046;DHT22;3564;53.326;10.356;2024-03-08T05:54:04;5.50;99.90
7046;DHT22;3564;53.326;10.356;2024-03-08T05:56:31;5.50;99.90
7046;DHT22;3564;53.326;10.356;2024-03-08T05:58:57;5.40;99.90
7046;DHT22;3564;53.326;10.356;2024-03-08T06:01:26;5.40;99.90
7046;DHT22;3564;53.326;10.356;2024-03-08T06:03:55;5.40;99.90
7046;DHT22;3564;53.326;10.356;2024-03-08T06:06:25;5.30;99.90
7046;DHT22;3564;53.326;10.356;2024-03-08T06:08:51;5.40;99.90
7046;DHT22;3564;53.326;10.356;2024-03-08T06:11:18;5.40;99.90
7046;DHT22;3564;53.326;10.356;2024-03-08T06:13:44;5.40;99.90
7046;DHT22;3564;53.326;10.356;2024-03-08T06:16:10;5.40;99.90
7046;DHT22;3564;53.326;10.356;2024-03-08T06:18:36;5.40;99.90
7046;DHT22;3564;53.326;10.356;2024-03-08T06:21:08;5.40;99.90
7046;DHT22;3564;53.326;10.356;2024-03-08T06:23:41;5.40;99.90
7046;DHT22;3564;53.326;10.356;2024-03-08T06:26:10;5.40;99.90
7046;DHT22;3564;53.326;10.356;2024-03-08T06:28:35;5.30;99.90
7046;DHT22;3564;53.326;10.356;2024-03-08T06:31:02;5.30;99.90
7046;DHT22;3564;53.326;10.356;2024-03-08T06:33:28;5.30;99.90
7046;DHT22;3564;53.326;10.356;2024-03-08T06:35:54;5.30;99.90
7046;DHT22;3564;53.326;10.356;2024-03-08T06:38:24;5.30;99.90
7046;DHT22;3564;53.326;10.356;2024-03-08T06:40:50;5.40;99.90
7046;DHT22;3564;53.326;10.356;2024-03-08T06:43:17;5.40;99.90
7046;DHT22;3564;53.326;10.356;2024-03-08T06:45:44;5.40;99.90
7046;DHT22;3564;53.326;10.356;2024-03-08T06:48:18;5.40;99.90
7046;DHT22;3564;53.326;10.356;2024-03-08T06:50:47;5.40;99.90
7046;DHT22;3564;53.326;10.356;2024-03-08T06:53:13;5.40;99.90
7046;DHT22;3564;53.326;10.356;2024-03-08T06:55:39;5.50;99.90
7046;DHT22;3564;53.326;10.356;2024-03-08T06:58:05;5.50;99.90
7046;DHT22;3564;53.326;10.356;2024-03-08T07:00:32;5.50;99.90
7046;DHT22;3564;53.326;10.356;2024-03-08T07:02:58;5.50;99.90
7046;DHT22;3564;53.326;10.356;2024-03-08T07:05:27;5.50;99.90
7046;DHT22;3564;53.326;10.356;2024-03-08T07:07:52;5.50;99.90
7046;DHT22;3564;53.326;10.356;2024-03-08T07:10:22;5.50;99.90
7046;DHT22;3564;53.326;10.356;2024-03-08T07:12:51;5.60;99.90
7046;DHT22;3564;53.326;10.356;2024-03-08T07:15:18;5.60;99.90
7046;DHT22;3564;53.326;10.356;2024-03-08T07:17:47;5.60;99.90
7046;DHT22;3564;53.326;10.356;2024-03-08T07:20:14;5.70;99.90
7046;DHT22;3564;53.326;10.356;2024-03-08T07:22:44;5.60;99.90
7046;DHT22;3564;53.326;10.356;2024-03-08T07:25:13;5.70;99.90
7046;DHT22;3564;53.326;10.356;2024-03-08T07:27:52;5.70;99.90
7046;DHT22;3564;53.326;10.356;2024-03-08T07:30:18;5.70;99.90
7046;DHT22;3564;53.326;10.356;2024-03-08T07:33:02;5.80;99.90
7046;DHT22;3564;53.326;10.356;2024-03-08T07:35:28;5.80;99.90
7046;DHT22;3564;53.326;10.356;2024-03-08T07:37:54;5.80;99.90
7046;DHT22;3564;53.326;10.356;2024-03-08T07:40:21;5.80;99.90
7046;DHT22;3564;53.326;10.356;2024-03-08T07:42:47;5.80;99.90
7046;DHT22;3564;53.326;10.356;2024-03-08T07:45:12;5.80;99.90
7046;DHT22;3564;53.326;10.356;2024-03-08T07:47:38;5.90;99.90
7046;DHT22;3564;53.326;10.356;2024-03-08T07:50:05;5.90;99.90
7046;DHT22;3564;53.326;10.356;2024-03-08T07:52:36;5.90;99.90
7046;DHT22;3564;53.326;10.356;2024-03-08T07:55:05;5.90;99.90
7046;DHT22;3564;53.326;10.356;2024-03-08T07:57:31;5.90;99.90
7046;DHT22;3564;53.326;10.356;2024-03-08T07:59:57;5.90;99.90
7046;DHT22;3564;53.326;10.356;2024-03-08T08:02:24;6.00;99.90
7046;DHT22;3564;53.326;10.356;2024-03-08T08:04:50;6.00;99.90
7046;DHT22;3564;53.326;10.356;2024-03-08T08:07:15;6.00;99.90
7046;DHT22;3564;53.326;10.356;2024-03-08T08:09:41;6.00;99.90
7046;DHT22;3564;53.326;10.356;2024-03-08T08:12:09;6.10;99.90
7046;DHT22;3564;53.326;10.356;2024-03-08T08:14:38;6.10;99.90
7046;DHT22;3564;53.326;10.356;2024-03-08T08:17:04;6.10;99.90
7046;DHT22;3564;53.326;10.356;2024-03-08T08:19:30;6.20;99.90
7046;DHT22;3564;53.326;10.356;2024-03-08T08:21:57;6.20;99.90
7046;DHT22;3564;53.326;10.356;2024-03-08T08:24:23;6.30;99.90
7046;DHT22;3564;53.326;10.356;2024-03-08T08:26:48;6.30;99.90
7046;DHT22;3564;53.326;10.356;2024-03-08T08:29:14;6.30;99.90
7046;DHT22;3564;53.326;10.356;2024-03-08T08:31:40;6.40;99.90
7046;DHT22;3564;53.326;10.356;2024-03-08T08:34:05;6.40;99.90
7046;DHT22;3564;53.326;10.356;2024-03-08T08:36:32;6.40;99.90
7046;DHT22;3564;53.326;10.356;2024-03-08T08:38:59;6.50;99.90
7046;DHT22;3564;53.326;10.356;2024-03-08T08:41:25;6.50;99.90
7046;DHT22;3564;53.326;10.356;2024-03-08T08:43:52;6.50;99.90
7046;DHT22;3564;53.326;10.356;2024-03-08T08:46:18;6.60;99.90
7046;DHT22;3564;53.326;10.356;2024-03-08T08:48:44;6.60;99.90
7046;DHT22;3564;53.326;10.356;2024-03-08T08:51:11;6.70;99.90
7046;DHT22;3564;53.326;10.356;2024-03-08T08:53:41;6.70;99.90
7046;DHT22;3564;53.326;10.356;2024-03-08T08:56:14;6.70;99.90
7046;DHT22;3564;53.326;10.356;2024-03-08T08:58:41;6.80;99.90
7046;DHT22;3564;53.326;10.356;2024-03-08T09:01:09;6.80;99.90
7046;DHT22;3564;53.326;10.356;2024-03-08T09:03:36;6.80;99.90
7046;DHT22;3564;53.326;10.356;2024-03-08T09:06:04;6.90;99.90
7046;DHT22;3564;53.326;10.356;2024-03-08T09:08:30;6.90;99.90
7046;DHT22;3564;53.326;10.356;2024-03-08T09:10:56;7.00;99.90
7046;DHT22;3564;53.326;10.356;2024-03-08T09:13:21;7.10;99.90
7046;DHT22;3564;53.326;10.356;2024-03-08T09:15:51;7.10;99.90
7046;DHT22;3564;53.326;10.356;2024-03-08T09:18:18;7.20;99.90
7046;DHT22;3564;53.326;10.356;2024-03-08T09:20:44;7.20;99.90
7046;DHT22;3564;53.326;10.356;2024-03-08T09:23:10;7.20;99.90
7046;DHT22;3564;53.326;10.356;2024-03-08T09:25:36;7.30;99.90
7046;DHT22;3564;53.326;10.356;2024-03-08T09:28:01;7.40;99.90
7046;DHT22;3564;53.326;10.356;2024-03-08T09:30:27;7.40;99.90
7046;DHT22;3564;53.326;10.356;2024-03-08T09:32:52;7.50;99.90
7046;DHT22;3564;53.326;10.356;2024-03-08T09:35:18;7.60;99.90
7046;DHT22;3564;53.326;10.356;2024-03-08T09:37:44;7.70;99.90
7046;DHT22;3564;53.326;10.356;2024-03-08T09:40:12;7.70;99.90
7046;DHT22;3564;53.326;10.356;2024-03-08T09:42:41;7.70;99.90
7046;DHT22;3564;53.326;10.356;2024-03-08T09:45:11;7.80;99.90
7046;DHT22;3564;53.326;10.356;2024-03-08T09:47:41;7.90;99.90
7046;DHT22;3564;53.326;10.356;2024-03-08T09:50:09;8.00;99.90
7046;DHT22;3564;53.326;10.356;2024-03-08T09:52:41;8.00;99.90
7046;DHT22;3564;53.326;10.356;2024-03-08T09:55:10;8.10;99.90
7046;DHT22;3564;53.326;10.356;2024-03-08T09:57:40;8.20;99.90
7046;DHT22;3564;53.326;10.356;2024-03-08T10:00:06;8.30;99.90
7046;DHT22;3564;53.326;10.356;2024-03-08T10:02:50;8.40;99.90
7046;DHT22;3564;53.326;10.356;2024-03-08T10:05:18;8.50;99.90
7046;DHT22;3564;53.326;10.356;2024-03-08T10:07:44;8.50;99.90
7046;DHT22;3564;53.326;10.356;2024-03-08T10:10:10;8.60;99.90
7046;DHT22;3564;53.326;10.356;2024-03-08T10:12:38;8.60;99.90
7046;DHT22;3564;53.326;10.356;2024-03-08T10:15:07;8.70;99.90
7046;DHT22;3564;53.326;10.356;2024-03-08T10:17:37;8.80;99.90
7046;DHT22;3564;53.326;10.356;2024-03-08T10:20:03;8.90;99.90
7046;DHT22;3564;53.326;10.356;2024-03-08T10:22:31;9.00;99.90
7046;DHT22;3564;53.326;10.356;2024-03-08T10:24:57;9.10;99.90
7046;DHT22;3564;53.326;10.356;2024-03-08T10:27:24;9.10;99.90
7046;DHT22;3564;53.326;10.356;2024-03-08T10:29:51;9.20;99.90
7046;DHT22;3564;53.326;10.356;2024-03-08T10:32:19;9.30;99.90
7046;DHT22;3564;53.326;10.356;2024-03-08T10:34:46;9.40;99.90
7046;DHT22;3564;53.326;10.356;2024-03-08T10:37:15;9.40;99.90
7046;DHT22;3564;53.326;10.356;2024-03-08T10:39:58;9.50;99.90
7046;DHT22;3564;53.326;10.356;2024-03-08T10:42:40;9.60;99.90
7046;DHT22;3564;53.326;10.356;2024-03-08T10:45:15;9.70;99.90
7046;DHT22;3564;53.326;10.356;2024-03-08T10:47:43;9.80;99.70
7046;DHT22;3564;53.326;10.356;2024-03-08T10:50:18;9.80;99.70
7046;DHT22;3564;53.326;10.356;2024-03-08T10:52:50;9.90;99.70
7046;DHT22;3564;53.326;10.356;2024-03-08T10:55:18;10.00;99.10
7046;DHT22;3564;53.326;10.356;2024-03-08T10:57:46;10.10;99.10
7046;DHT22;3564;53.326;10.356;2024-03-08T11:00:13;10.10;99.00
7046;DHT22;3564;53.326;10.356;2024-03-08T11:02:44;10.20;98.90
7046;DHT22;3564;53.326;10.356;2024-03-08T11:05:10;10.30;98.90
7046;DHT22;3564;53.326;10.356;2024-03-08T11:07:45;10.40;98.90
7046;DHT22;3564;53.326;10.356;2024-03-08T11:10:20;10.40;99.00
7046;DHT22;3564;53.326;10.356;2024-03-08T11:12:46;10.50;98.70
7046;DHT22;3564;53.326;10.356;2024-03-08T11:15:13;10.50;98.40
7046;DHT22;3564;53.326;10.356;2024-03-08T11:20:17;10.70;98.40
7046;DHT22;3564;53.326;10.356;2024-03-08T11:22:51;10.80;98.30
7046;DHT22;3564;53.326;10.356;2024-03-08T11:33:32;11.10;97.20
7046;DHT22;3564;53.326;10.356;2024-03-08T11:36:32;11.20;97.00
7046;DHT22;3564;53.326;10.356;2024-03-08T11:39:01;11.20;96.50
7046;DHT22;3564;53.326;10.356;2024-03-08T11:41:35;11.30;96.30
7046;DHT22;3564;53.326;10.356;2024-03-08T11:44:04;11.40;96.10
7046;DHT22;3564;53.326;10.356;2024-03-08T11:46:30;11.50;95.50
7046;DHT22;3564;53.326;10.356;2024-03-08T11:48:56;11.50;95.20
7046;DHT22;3564;53.326;10.356;2024-03-08T11:51:22;11.50;94.70
7046;DHT22;3564;53.326;10.356;2024-03-08T11:54:11;11.60;94.50
7046;DHT22;3564;53.326;10.356;2024-03-08T11:56:38;11.70;94.40
7046;DHT22;3564;53.326;10.356;2024-03-08T11:59:11;11.70;94.30
7046;DHT22;3564;53.326;10.356;2024-03-08T12:01:40;11.70;94.00
7046;DHT22;3564;53.326;10.356;2024-03-08T12:04:06;11.80;94.00
7046;DHT22;3564;53.326;10.356;2024-03-08T12:06:39;11.80;94.00
7046;DHT22;3564;53.326;10.356;2024-03-08T12:09:11;11.90;93.80
7046;DHT22;3564;53.326;10.356;2024-03-08T12:11:37;11.80;93.40
7046;DHT22;3564;53.326;10.356;2024-03-08T12:14:03;11.90;93.40
7046;DHT22;3564;53.326;10.356;2024-03-08T12:16:29;12.00;93.40
7046;DHT22;3564;53.326;10.356;2024-03-08T12:18:55;12.00;93.40
7046;DHT22;3564;53.326;10.356;2024-03-08T12:21:21;12.10;93.40
7046;DHT22;3564;53.326;10.356;2024-03-08T12:24:07;12.10;93.30
7046;DHT22;3564;53.326;10.356;2024-03-08T12:26:38;12.20;93.10
7046;DHT22;3564;53.326;10.356;2024-03-08T12:29:19;12.20;92.90
7046;DHT22;3564;53.326;10.356;2024-03-08T12:31:47;12.20;92.70
7046;DHT22;3564;53.326;10.356;2024-03-08T12:34:13;12.20;92.20
7046;DHT22;3564;53.326;10.356;2024-03-08T12:36:50;12.30;92.10
7046;DHT22;3564;53.326;10.356;2024-03-08T12:39:18;12.30;91.80
7046;DHT22;3564;53.326;10.356;2024-03-08T12:41:51;12.40;91.70
7046;DHT22;3564;53.326;10.356;2024-03-08T12:44:20;12.40;91.60
7046;DHT22;3564;53.326;10.356;2024-03-08T12:46:47;12.40;91.50
7046;DHT22;3564;53.326;10.356;2024-03-08T12:49:14;12.40;91.40
7046;DHT22;3564;53.326;10.356;2024-03-08T12:51:46;12.50;91.10
7046;DHT22;3564;53.326;10.356;2024-03-08T12:54:11;12.50;91.00
7046;DHT22;3564;53.326;10.356;2024-03-08T12:56:39;12.50;90.70
7046;DHT22;3564;53.326;10.356;2024-03-08T12:59:06;12.60;90.40
7046;DHT22;3564;53.326;10.356;2024-03-08T13:01:33;12.60;89.80
7046;DHT22;3564;53.326;10.356;2024-03-08T13:03:59;12.60;89.40
7046;DHT22;3564;53.326;10.356;2024-03-08T13:06:28;12.70;89.40
7046;DHT22;3564;53.326;10.356;2024-03-08T13:08:54;12.70;89.40
7046;DHT22;3564;53.326;10.356;2024-03-08T13:11:21;12.70;89.00
7046;DHT22;3564;53.326;10.356;2024-03-08T13:13:47;12.80;89.00
7046;DHT22;3564;53.326;10.356;2024-03-08T13:16:13;12.80;88.90
7046;DHT22;3564;53.326;10.356;2024-03-08T13:18:45;12.90;88.20
7046;DHT22;3564;53.326;10.356;2024-03-08T13:21:14;12.90;87.10
7046;DHT22;3564;53.326;10.356;2024-03-08T13:23:42;12.90;87.00
7046;DHT22;3564;53.326;10.356;2024-03-08T13:26:12;12.90;86.00
7046;DHT22;3564;53.326;10.356;2024-03-08T13:28:42;13.00;86.00
7046;DHT22;3564;53.326;10.356;2024-03-08T13:31:08;13.00;85.20
7046;DHT22;3564;53.326;10.356;2024-03-08T13:33:36;13.00;85.20
7046;DHT22;3564;53.326;10.356;2024-03-08T13:36:05;13.00;84.50
7046;DHT22;3564;53.326;10.356;2024-03-08T13:38:43;13.10;83.60
7046;DHT22;3564;53.326;10.356;2024-03-08T13:41:11;13.10;83.80
7046;DHT22;3564;53.326;10.356;2024-03-08T13:43:38;13.10;84.40
7046;DHT22;3564;53.326;10.356;2024-03-08T13:46:05;13.20;84.20
7046;DHT22;3564;53.326;10.356;2024-03-08T13:48:32;13.20;83.50
7046;DHT22;3564;53.326;10.356;2024-03-08T13:50:58;13.30;83.10
7046;DHT22;3564;53.326;10.356;2024-03-08T13:53:23;13.30;83.10
7046;DHT22;3564;53.326;10.356;2024-03-08T13:55:50;13.40;83.20
7046;DHT22;3564;53.326;10.356;2024-03-08T13:58:16;13.50;83.50
7046;DHT22;3564;53.326;10.356;2024-03-08T14:00:41;13.50;83.20
7046;DHT22;3564;53.326;10.356;2024-03-08T14:03:10;13.50;83.80
7046;DHT22;3564;53.326;10.356;2024-03-08T14:05:38;13.50;83.60
7046;DHT22;3564;53.326;10.356;2024-03-08T14:08:06;13.60;84.00
7046;DHT22;3564;53.326;10.356;2024-03-08T14:10:33;13.70;84.90
7046;DHT22;3564;53.326;10.356;2024-03-08T14:13:00;13.70;84.30
7046;DHT22;3564;53.326;10.356;2024-03-08T14:15:26;13.80;84.00
7046;DHT22;3564;53.326;10.356;2024-03-08T14:17:53;13.80;84.70
7046;DHT22;3564;53.326;10.356;2024-03-08T14:20:18;13.80;84.00
7046;DHT22;3564;53.326;10.356;2024-03-08T14:22:44;13.90;84.90
7046;DHT22;3564;53.326;10.356;2024-03-08T14:25:10;14.00;85.20
7046;DHT22;3564;53.326;10.356;2024-03-08T14:27:43;14.10;85.30
7046;DHT22;3564;53.326;10.356;2024-03-08T14:30:10;14.10;84.90
7046;DHT22;3564;53.326;10.356;2024-03-08T14:32:35;14.10;83.90
7046;DHT22;3564;53.326;10.356;2024-03-08T14:35:06;14.10;84.30
7046;DHT22;3564;53.326;10.356;2024-03-08T14:37:32;14.20;83.60
7046;DHT22;3564;53.326;10.356;2024-03-08T14:39:58;14.20;83.00
7046;DHT22;3564;53.326;10.356;2024-03-08T14:42:24;14.20;82.90
7046;DHT22;3564;53.326;10.356;2024-03-08T14:44:53;14.20;83.00
7046;DHT22;3564;53.326;10.356;2024-03-08T14:47:19;14.40;83.10
7046;DHT22;3564;53.326;10.356;2024-03-08T14:49:45;14.40;82.40
7046;DHT22;3564;53.326;10.356;2024-03-08T14:52:10;14.50;82.10
7046;DHT22;3564;53.326;10.356;2024-03-08T14:54:55;14.50;81.90
7046;DHT22;3564;53.326;10.356;2024-03-08T14:57:22;14.60;82.50
7046;DHT22;3564;53.326;10.356;2024-03-08T14:59:48;14.60;82.20
7046;DHT22;3564;53.326;10.356;2024-03-08T15:02:13;14.60;81.30
7046;DHT22;3564;53.326;10.356;2024-03-08T15:04:39;14.80;82.20
7046;DHT22;3564;53.326;10.356;2024-03-08T15:07:07;14.80;81.90
7046;DHT22;3564;53.326;10.356;2024-03-08T15:09:36;14.90;79.40
7046;DHT22;3564;53.326;10.356;2024-03-08T15:12:09;15.00;80.30
7046;DHT22;3564;53.326;10.356;2024-03-08T15:14:41;15.10;79.90
7046;DHT22;3564;53.326;10.356;2024-03-08T15:17:09;15.20;79.90
7046;DHT22;3564;53.326;10.356;2024-03-08T15:19:43;15.40;79.60
7046;DHT22;3564;53.326;10.356;2024-03-08T15:22:09;15.50;78.40
7046;DHT22;3564;53.326;10.356;2024-03-08T15:24:36;15.60;78.60
7046;DHT22;3564;53.326;10.356;2024-03-08T15:27:03;15.80;77.60
7046;DHT22;3564;53.326;10.356;2024-03-08T15:29:28;16.10;78.90
7046;DHT22;3564;53.326;10.356;2024-03-08T15:31:56;16.30;79.50
7046;DHT22;3564;53.326;10.356;2024-03-08T15:34:21;16.70;78.50
7046;DHT22;3564;53.326;10.356;2024-03-08T15:36:49;16.90;76.50
7046;DHT22;3564;53.326;10.356;2024-03-08T15:39:17;17.10;76.30
7046;DHT22;3564;53.326;10.356;2024-03-08T15:41:46;17.20;74.90
7046;DHT22;3564;53.326;10.356;2024-03-08T15:44:12;17.30;74.60
7046;DHT22;3564;53.326;10.356;2024-03-08T15:46:39;17.50;74.90
7046;DHT22;3564;53.326;10.356;2024-03-08T15:49:08;17.60;74.00
7046;DHT22;3564;53.326;10.356;2024-03-08T15:51:37;17.70;74.20
7046;DHT22;3564;53.326;10.356;2024-03-08T15:54:04;17.70;73.50
7046;DHT22;3564;53.326;10.356;2024-03-08T15:56:30;17.80;73.00
7046;DHT22;3564;53.326;10.356;2024-03-08T15:58:57;17.90;73.80
7046;DHT22;3564;53.326;10.356;2024-03-08T16:01:23;17.70;73.00
7046;DHT22;3564;53.326;10.356;2024-03-08T16:03:50;17.60;71.50
7046;DHT22;3564;53.326;10.356;2024-03-08T16:06:16;17.40;71.30
7046;DHT22;3564;53.326;10.356;2024-03-08T16:08:48;17.10;71.40
7046;DHT22;3564;53.326;10.356;2024-03-08T16:11:13;16.90;72.20
7046;DHT22;3564;53.326;10.356;2024-03-08T16:13:39;16.60;71.70